sensor_id;sensor_type;location;lat;lon;timestamp;P1;durP1;ratioP1;P2;durP2;ratioP2
31368;SDS011;18004;48.416;10.066;2023-03-12T00:01:35;4.25;;;2.55;;
31368;SDS011;18004;48.416;10.066;2023-03-12T00:04:03;6.10;;;2.10;;
31368;SDS011;18004;48.416;10.066;2023-03-12T00:06:29;4.43;;;2.40;;
31368;SDS011;18004;48.416;10.066;2023-03-12T00:08:56;3.65;;;2.40;;
31368;SDS011;18004;48.416;10.066;2023-03-12T00:11:22;7.07;;;3.55;;
31368;SDS011;18004;48.416;10.066;2023-03-12T00:13:51;8.73;;;4.60;;
31368;SDS011;18004;48.416;10.066;2023-03-12T00:16:18;8.55;;;4.28;;
31368;SDS011;18004;48.416;10.066;2023-03-12T00:18:46;9.85;;;3.10;;
31368;SDS011;18004;48.416;10.066;2023-03-12T00:21:13;5.55;;;2.45;;
31368;SDS011;18004;48.416;10.066;2023-03-12T00:23:39;7.55;;;3.22;;
31368;SDS011;18004;48.416;10.066;2023-03-12T00:26:06;7.97;;;2.00;;
31368;SDS011;18004;48.416;10.066;2023-03-12T00:28:34;2.53;;;1.92;;
31368;SDS011;18004;48.416;10.066;2023-03-12T00:31:01;4.40;;;2.15;;
31368;SDS011;18004;48.416;10.066;2023-03-12T00:33:47;5.53;;;2.45;;
31368;SDS011;18004;48.416;10.066;2023-03-12T00:36:14;2.55;;;1.80;;
31368;SDS011;18004;48.416;10.066;2023-03-12T00:38:41;3.72;;;2.03;;
31368;SDS011;18004;48.416;10.066;2023-03-12T00:41:07;4.53;;;2.00;;
31368;SDS011;18004;48.416;10.066;2023-03-12T00:43:33;3.92;;;1.95;;
31368;SDS011;18004;48.416;10.066;2023-03-12T00:45:59;2.33;;;1.67;;
31368;SDS011;18004;48.416;10.066;2023-03-12T00:48:25;3.80;;;1.70;;
31368;SDS011;18004;48.416;10.066;2023-03-12T00:50:50;2.75;;;1.58;;
31368;SDS011;18004;48.416;10.066;2023-03-12T00:53:16;3.58;;;1.90;;
31368;SDS011;18004;48.416;10.066;2023-03-12T00:55:42;4.38;;;1.58;;
31368;SDS011;18004;48.416;10.066;2023-03-12T00:58:08;4.65;;;2.33;;
31368;SDS011;18004;48.416;10.066;2023-03-12T01:00:33;3.25;;;1.85;;
31368;SDS011;18004;48.416;10.066;2023-03-12T01:02:59;3.85;;;1.63;;
31368;SDS011;18004;48.416;10.066;2023-03-12T01:05:25;6.10;;;2.10;;
31368;SDS011;18004;48.416;10.066;2023-03-12T01:07:51;1.98;;;1.20;;
31368;SDS011;18004;48.416;10.066;2023-03-12T01:10:18;4.45;;;1.50;;
31368;SDS011;18004;48.416;10.066;2023-03-12T01:12:45;1.67;;;1.35;;
31368;SDS011;18004;48.416;10.066;2023-03-12T01:15:14;8.02;;;1.70;;
31368;SDS011;18004;48.416;10.066;2023-03-12T01:17:41;4.27;;;1.73;;
31368;SDS011;18004;48.416;10.066;2023-03-12T01:20:08;2.65;;;2.03;;
31368;SDS011;18004;48.416;10.066;2023-03-12T01:22:34;2.75;;;1.70;;
31368;SDS011;18004;48.416;10.066;2023-03-12T01:25:00;2.25;;;1.50;;
31368;SDS011;18004;48.416;10.066;2023-03-12T01:27:26;2.03;;;1.42;;
31368;SDS011;18004;48.416;10.066;2023-03-12T01:29:52;4.18;;;2.20;;
31368;SDS011;18004;48.416;10.066;2023-03-12T01:32:18;5.38;;;2.25;;
31368;SDS011;18004;48.416;10.066;2023-03-12T01:34:44;2.50;;;1.48;;
31368;SDS011;18004;48.416;10.066;2023-03-12T01:37:09;8.10;;;2.00;;
31368;SDS011;18004;48.416;10.066;2023-03-12T01:39:35;1.52;;;1.30;;
31368;SDS011;18004;48.416;10.066;2023-03-12T01:42:01;2.83;;;1.80;;
31368;SDS011;18004;48.416;10.066;2023-03-12T01:44:27;4.47;;;1.98;;
31368;SDS011;18004;48.416;10.066;2023-03-12T01:46:53;2.38;;;1.80;;
31368;SDS011;18004;48.416;10.066;2023-03-12T01:49:29;2.17;;;1.98;;
31368;SDS011;18004;48.416;10.066;2023-03-12T01:54:38;8.45;;;2.08;;
31368;SDS011;18004;48.416;10.066;2023-03-12T01:57:07;8.68;;;1.83;;
31368;SDS011;18004;48.416;10.066;2023-03-12T02:00:12;1.58;;;1.48;;
31368;SDS011;18004;48.416;10.066;2023-03-12T02:02:36;4.57;;;2.40;;
31368;SDS011;18004;48.416;10.066;2023-03-12T02:05:06;3.70;;;2.28;;
31368;SDS011;18004;48.416;10.066;2023-03-12T02:07:39;6.13;;;2.15;;
31368;SDS011;18004;48.416;10.066;2023-03-12T02:10:05;5.57;;;2.17;;
31368;SDS011;18004;48.416;10.066;2023-03-12T02:12:31;5.25;;;1.95;;
31368;SDS011;18004;48.416;10.066;2023-03-12T02:14:57;3.47;;;2.22;;
31368;SDS011;18004;48.416;10.066;2023-03-12T02:17:23;2.65;;;1.65;;
31368;SDS011;18004;48.416;10.066;2023-03-12T02:22:41;2.40;;;1.75;;
31368;SDS011;18004;48.416;10.066;2023-03-12T02:27:56;6.88;;;1.77;;
31368;SDS011;18004;48.416;10.066;2023-03-12T02:30:24;6.00;;;2.35;;
31368;SDS011;18004;48.416;10.066;2023-03-12T02:32:52;5.68;;;2.40;;
31368;SDS011;18004;48.416;10.066;2023-03-12T02:35:19;2.67;;;2.10;;
31368;SDS011;18004;48.416;10.066;2023-03-12T02:37:52;5.45;;;2.40;;
31368;SDS011;18004;48.416;10.066;2023-03-12T02:43:14;6.35;;;2.53;;
31368;SDS011;18004;48.416;10.066;2023-03-12T02:45:44;3.10;;;2.33;;
31368;SDS011;18004;48.416;10.066;2023-03-12T02:48:10;2.03;;;1.80;;
31368;SDS011;18004;48.416;10.066;2023-03-12T02:50:36;3.50;;;1.92;;
31368;SDS011;18004;48.416;10.066;2023-03-12T02:53:01;3.90;;;2.30;;
31368;SDS011;18004;48.416;10.066;2023-03-12T02:55:27;10.00;;;2.40;;
31368;SDS011;18004;48.416;10.066;2023-03-12T02:57:53;8.15;;;2.80;;
31368;SDS011;18004;48.416;10.066;2023-03-12T03:00:19;13.73;;;3.38;;
31368;SDS011;18004;48.416;10.066;2023-03-12T03:02:45;5.97;;;2.85;;
31368;SDS011;18004;48.416;10.066;2023-03-12T03:05:11;7.25;;;2.75;;
31368;SDS011;18004;48.416;10.066;2023-03-12T03:07:37;4.65;;;2.75;;
31368;SDS011;18004;48.416;10.066;2023-03-12T03:10:03;4.03;;;2.03;;
31368;SDS011;18004;48.416;10.066;2023-03-12T03:12:30;3.22;;;2.47;;
31368;SDS011;18004;48.416;10.066;2023-03-12T03:14:57;2.85;;;1.95;;
31368;SDS011;18004;48.416;10.066;2023-03-12T03:17:22;9.70;;;2.17;;
31368;SDS011;18004;48.416;10.066;2023-03-12T03:19:49;3.47;;;2.35;;
31368;SDS011;18004;48.416;10.066;2023-03-12T03:22:16;4.28;;;2.20;;
31368;SDS011;18004;48.416;10.066;2023-03-12T03:24:42;5.93;;;2.03;;
31368;SDS011;18004;48.416;10.066;2023-03-12T03:27:08;2.42;;;2.22;;
31368;SDS011;18004;48.416;10.066;2023-03-12T03:29:34;2.80;;;2.10;;
31368;SDS011;18004;48.416;10.066;2023-03-12T03:31:59;3.67;;;1.77;;
31368;SDS011;18004;48.416;10.066;2023-03-12T03:34:25;4.00;;;2.10;;
31368;SDS011;18004;48.416;10.066;2023-03-12T03:36:51;2.05;;;1.85;;
31368;SDS011;18004;48.416;10.066;2023-03-12T03:39:16;4.60;;;2.60;;
31368;SDS011;18004;48.416;10.066;2023-03-12T03:41:42;3.85;;;2.05;;
31368;SDS011;18004;48.416;10.066;2023-03-12T03:44:10;6.82;;;2.50;;
31368;SDS011;18004;48.416;10.066;2023-03-12T03:46:36;9.85;;;2.45;;
31368;SDS011;18004;48.416;10.066;2023-03-12T03:49:02;5.28;;;2.17;;
31368;SDS011;18004;48.416;10.066;2023-03-12T03:51:28;4.25;;;2.25;;
31368;SDS011;18004;48.416;10.066;2023-03-12T03:53:53;1.58;;;1.33;;
31368;SDS011;18004;48.416;10.066;2023-03-12T03:56:19;5.38;;;2.13;;
31368;SDS011;18004;48.416;10.066;2023-03-12T03:58:45;2.75;;;2.15;;
31368;SDS011;18004;48.416;10.066;2023-03-12T04:01:12;4.20;;;2.47;;
31368;SDS011;18004;48.416;10.066;2023-03-12T04:03:38;5.05;;;2.40;;
31368;SDS011;18004;48.416;10.066;2023-03-12T04:06:04;4.07;;;2.53;;
31368;SDS011;18004;48.416;10.066;2023-03-12T04:08:31;5.15;;;2.30;;
31368;SDS011;18004;48.416;10.066;2023-03-12T04:11:05;3.50;;;2.42;;
31368;SDS011;18004;48.416;10.066;2023-03-12T04:13:39;5.03;;;2.50;;
31368;SDS011;18004;48.416;10.066;2023-03-12T04:16:05;5.03;;;2.33;;
31368;SDS011;18004;48.416;10.066;2023-03-12T04:18:32;3.60;;;2.28;;
31368;SDS011;18004;48.416;10.066;2023-03-12T04:21:00;3.15;;;2.25;;
31368;SDS011;18004;48.416;10.066;2023-03-12T04:23:26;6.18;;;2.67;;
31368;SDS011;18004;48.416;10.066;2023-03-12T04:25:52;10.05;;;2.67;;
31368;SDS011;18004;48.416;10.066;2023-03-12T04:28:18;12.13;;;2.35;;
31368;SDS011;18004;48.416;10.066;2023-03-12T04:30:43;9.43;;;2.78;;
31368;SDS011;18004;48.416;10.066;2023-03-12T04:33:09;3.72;;;2.42;;
31368;SDS011;18004;48.416;10.066;2023-03-12T04:35:35;4.18;;;1.88;;
31368;SDS011;18004;48.416;10.066;2023-03-12T04:38:01;2.75;;;2.30;;
31368;SDS011;18004;48.416;10.066;2023-03-12T04:40:28;3.88;;;2.30;;
31368;SDS011;18004;48.416;10.066;2023-03-12T04:42:54;2.53;;;2.00;;
31368;SDS011;18004;48.416;10.066;2023-03-12T04:45:19;3.08;;;2.08;;
31368;SDS011;18004;48.416;10.066;2023-03-12T04:47:45;3.22;;;2.10;;
31368;SDS011;18004;48.416;10.066;2023-03-12T04:50:11;3.67;;;2.03;;
31368;SDS011;18004;48.416;10.066;2023-03-12T04:52:37;3.17;;;1.80;;
31368;SDS011;18004;48.416;10.066;2023-03-12T04:55:03;5.32;;;2.10;;
31368;SDS011;18004;48.416;10.066;2023-03-12T04:57:29;3.38;;;2.03;;
31368;SDS011;18004;48.416;10.066;2023-03-12T04:59:55;2.35;;;2.08;;
31368;SDS011;18004;48.416;10.066;2023-03-12T05:02:21;2.28;;;1.70;;
31368;SDS011;18004;48.416;10.066;2023-03-12T05:04:47;2.30;;;1.77;;
31368;SDS011;18004;48.416;10.066;2023-03-12T05:07:13;2.00;;;1.80;;
31368;SDS011;18004;48.416;10.066;2023-03-12T05:09:39;6.95;;;2.42;;
31368;SDS011;18004;48.416;10.066;2023-03-12T05:12:05;6.25;;;1.85;;
31368;SDS011;18004;48.416;10.066;2023-03-12T05:14:31;3.83;;;2.25;;
31368;SDS011;18004;48.416;10.066;2023-03-12T05:16:57;4.50;;;2.08;;
31368;SDS011;18004;48.416;10.066;2023-03-12T05:19:22;3.22;;;2.25;;
31368;SDS011;18004;48.416;10.066;2023-03-12T05:21:48;2.40;;;2.03;;
31368;SDS011;18004;48.416;10.066;2023-03-12T05:24:14;6.07;;;2.45;;
31368;SDS011;18004;48.416;10.066;2023-03-12T05:26:41;6.90;;;1.95;;
31368;SDS011;18004;48.416;10.066;2023-03-12T05:29:07;2.45;;;1.90;;
31368;SDS011;18004;48.416;10.066;2023-03-12T05:31:32;3.80;;;1.80;;
31368;SDS011;18004;48.416;10.066;2023-03-12T05:33:59;3.33;;;1.63;;
31368;SDS011;18004;48.416;10.066;2023-03-12T05:36:26;3.60;;;1.65;;
31368;SDS011;18004;48.416;10.066;2023-03-12T05:38:52;7.93;;;1.92;;
31368;SDS011;18004;48.416;10.066;2023-03-12T05:43:45;2.35;;;1.50;;
31368;SDS011;18004;48.416;10.066;2023-03-12T05:46:11;1.85;;;1.55;;
31368;SDS011;18004;48.416;10.066;2023-03-12T05:48:37;4.15;;;1.45;;
31368;SDS011;18004;48.416;10.066;2023-03-12T05:51:02;3.03;;;1.88;;
31368;SDS011;18004;48.416;10.066;2023-03-12T05:53:28;3.05;;;1.20;;
31368;SDS011;18004;48.416;10.066;2023-03-12T05:55:54;3.83;;;1.92;;
31368;SDS011;18004;48.416;10.066;2023-03-12T06:00:51;2.08;;;1.67;;
31368;SDS011;18004;48.416;10.066;2023-03-12T06:03:17;4.25;;;1.75;;
31368;SDS011;18004;48.416;10.066;2023-03-12T06:05:43;3.90;;;1.88;;
31368;SDS011;18004;48.416;10.066;2023-03-12T06:08:09;10.93;;;2.00;;
31368;SDS011;18004;48.416;10.066;2023-03-12T06:10:36;2.28;;;1.73;;
31368;SDS011;18004;48.416;10.066;2023-03-12T06:13:03;3.75;;;1.95;;
31368;SDS011;18004;48.416;10.066;2023-03-12T06:15:29;2.88;;;1.52;;
31368;SDS011;18004;48.416;10.066;2023-03-12T06:17:55;3.70;;;1.52;;
31368;SDS011;18004;48.416;10.066;2023-03-12T06:20:21;3.67;;;1.77;;
31368;SDS011;18004;48.416;10.066;2023-03-12T06:22:47;3.08;;;1.88;;
31368;SDS011;18004;48.416;10.066;2023-03-12T06:25:13;6.20;;;1.98;;
31368;SDS011;18004;48.416;10.066;2023-03-12T06:27:39;5.00;;;2.25;;
31368;SDS011;18004;48.416;10.066;2023-03-12T06:30:05;4.40;;;2.15;;
31368;SDS011;18004;48.416;10.066;2023-03-12T06:32:31;4.63;;;2.30;;
31368;SDS011;18004;48.416;10.066;2023-03-12T06:34:57;2.45;;;1.83;;
31368;SDS011;18004;48.416;10.066;2023-03-12T06:37:25;10.55;;;2.30;;
31368;SDS011;18004;48.416;10.066;2023-03-12T06:39:51;2.45;;;1.65;;
31368;SDS011;18004;48.416;10.066;2023-03-12T06:42:17;2.92;;;2.10;;
31368;SDS011;18004;48.416;10.066;2023-03-12T06:44:45;7.15;;;2.55;;
31368;SDS011;18004;48.416;10.066;2023-03-12T06:47:10;12.52;;;3.10;;
31368;SDS011;18004;48.416;10.066;2023-03-12T06:49:36;3.90;;;2.55;;
31368;SDS011;18004;48.416;10.066;2023-03-12T06:52:03;6.65;;;2.85;;
31368;SDS011;18004;48.416;10.066;2023-03-12T06:54:29;3.75;;;2.20;;
31368;SDS011;18004;48.416;10.066;2023-03-12T06:56:56;4.55;;;2.47;;
31368;SDS011;18004;48.416;10.066;2023-03-12T06:59:23;3.50;;;2.38;;
31368;SDS011;18004;48.416;10.066;2023-03-12T07:01:50;4.05;;;2.47;;
31368;SDS011;18004;48.416;10.066;2023-03-12T07:04:16;8.23;;;2.90;;
31368;SDS011;18004;48.416;10.066;2023-03-12T07:06:41;4.38;;;2.70;;
31368;SDS011;18004;48.416;10.066;2023-03-12T07:09:07;4.35;;;2.20;;
31368;SDS011;18004;48.416;10.066;2023-03-12T07:11:34;5.32;;;3.20;;
31368;SDS011;18004;48.416;10.066;2023-03-12T07:14:00;4.90;;;3.08;;
31368;SDS011;18004;48.416;10.066;2023-03-12T07:16:26;11.02;;;3.05;;
31368;SDS011;18004;48.416;10.066;2023-03-12T07:18:52;9.23;;;3.25;;
31368;SDS011;18004;48.416;10.066;2023-03-12T07:21:17;4.30;;;2.65;;
31368;SDS011;18004;48.416;10.066;2023-03-12T07:23:51;7.53;;;2.45;;
31368;SDS011;18004;48.416;10.066;2023-03-12T07:26:17;3.38;;;2.45;;
31368;SDS011;18004;48.416;10.066;2023-03-12T07:28:43;6.47;;;3.42;;
31368;SDS011;18004;48.416;10.066;2023-03-12T07:31:09;3.70;;;2.67;;
31368;SDS011;18004;48.416;10.066;2023-03-12T07:33:35;5.05;;;3.50;;
31368;SDS011;18004;48.416;10.066;2023-03-12T07:36:01;11.18;;;3.58;;
31368;SDS011;18004;48.416;10.066;2023-03-12T07:38:27;6.85;;;3.15;;
31368;SDS011;18004;48.416;10.066;2023-03-12T07:40:54;12.15;;;3.75;;
31368;SDS011;18004;48.416;10.066;2023-03-12T07:43:21;5.32;;;3.65;;
31368;SDS011;18004;48.416;10.066;2023-03-12T07:45:48;4.03;;;2.75;;
31368;SDS011;18004;48.416;10.066;2023-03-12T07:48:14;8.60;;;3.25;;
31368;SDS011;18004;48.416;10.066;2023-03-12T07:50:40;8.45;;;4.10;;
31368;SDS011;18004;48.416;10.066;2023-03-12T07:53:06;8.73;;;4.03;;
31368;SDS011;18004;48.416;10.066;2023-03-12T07:55:32;7.90;;;4.30;;
31368;SDS011;18004;48.416;10.066;2023-03-12T07:57:59;9.02;;;4.82;;
31368;SDS011;18004;48.416;10.066;2023-03-12T08:00:25;6.75;;;4.72;;
31368;SDS011;18004;48.416;10.066;2023-03-12T08:02:52;8.20;;;4.57;;
31368;SDS011;18004;48.416;10.066;2023-03-12T08:05:18;6.38;;;4.50;;
31368;SDS011;18004;48.416;10.066;2023-03-12T08:07:45;12.70;;;6.22;;
31368;SDS011;18004;48.416;10.066;2023-03-12T08:10:10;9.20;;;5.22;;
31368;SDS011;18004;48.416;10.066;2023-03-12T08:12:36;10.48;;;4.97;;
31368;SDS011;18004;48.416;10.066;2023-03-12T08:15:03;9.25;;;5.07;;
31368;SDS011;18004;48.416;10.066;2023-03-12T08:17:30;8.57;;;5.10;;
31368;SDS011;18004;48.416;10.066;2023-03-12T08:19:55;11.60;;;5.57;;
31368;SDS011;18004;48.416;10.066;2023-03-12T08:22:21;6.95;;;5.10;;
31368;SDS011;18004;48.416;10.066;2023-03-12T08:24:47;9.07;;;5.55;;
31368;SDS011;18004;48.416;10.066;2023-03-12T08:27:13;8.90;;;5.65;;
31368;SDS011;18004;48.416;10.066;2023-03-12T08:29:39;10.13;;;5.57;;
31368;SDS011;18004;48.416;10.066;2023-03-12T08:32:05;9.65;;;5.18;;
31368;SDS011;18004;48.416;10.066;2023-03-12T08:34:34;8.13;;;5.32;;
31368;SDS011;18004;48.416;10.066;2023-03-12T08:37:01;10.23;;;5.70;;
31368;SDS011;18004;48.416;10.066;2023-03-12T08:39:27;10.60;;;5.90;;
31368;SDS011;18004;48.416;10.066;2023-03-12T08:41:53;16.20;;;6.13;;
31368;SDS011;18004;48.416;10.066;2023-03-12T08:44:22;10.27;;;5.97;;
31368;SDS011;18004;48.416;10.066;2023-03-12T08:46:49;9.70;;;5.88;;
31368;SDS011;18004;48.416;10.066;2023-03-12T08:49:15;12.27;;;6.60;;
31368;SDS011;18004;48.416;10.066;2023-03-12T08:51:42;10.45;;;6.68;;
31368;SDS011;18004;48.416;10.066;2023-03-12T08:54:07;10.40;;;6.20;;
31368;SDS011;18004;48.416;10.066;2023-03-12T08:56:33;7.97;;;5.82;;
31368;SDS011;18004;48.416;10.066;2023-03-12T08:59:01;10.55;;;6.35;;
31368;SDS011;18004;48.416;10.066;2023-03-12T09:01:27;12.13;;;6.68;;
31368;SDS011;18004;48.416;10.066;2023-03-12T09:03:52;14.18;;;7.45;;
31368;SDS011;18004;48.416;10.066;2023-03-12T09:06:19;11.48;;;6.90;;
31368;SDS011;18004;48.416;10.066;2023-03-12T09:08:46;12.75;;;6.88;;
31368;SDS011;18004;48.416;10.066;2023-03-12T09:11:13;13.95;;;7.00;;
31368;SDS011;18004;48.416;10.066;2023-03-12T09:13:39;9.90;;;6.70;;
31368;SDS011;18004;48.416;10.066;2023-03-12T09:16:06;12.57;;;7.03;;
31368;SDS011;18004;48.416;10.066;2023-03-12T09:18:32;10.25;;;6.25;;
31368;SDS011;18004;48.416;10.066;2023-03-12T09:20:59;11.93;;;6.60;;
31368;SDS011;18004;48.416;10.066;2023-03-12T09:23:26;13.00;;;6.68;;
31368;SDS011;18004;48.416;10.066;2023-03-12T09:25:53;10.55;;;5.72;;
31368;SDS011;18004;48.416;10.066;2023-03-12T09:28:19;10.65;;;6.05;;
31368;SDS011;18004;48.416;10.066;2023-03-12T09:30:45;7.55;;;5.70;;
31368;SDS011;18004;48.416;10.066;2023-03-12T09:33:11;10.77;;;6.80;;
31368;SDS011;18004;48.416;10.066;2023-03-12T09:35:37;11.07;;;6.85;;
31368;SDS011;18004;48.416;10.066;2023-03-12T09:38:04;9.40;;;5.72;;
31368;SDS011;18004;48.416;10.066;2023-03-12T09:40:31;9.80;;;6.18;;
31368;SDS011;18004;48.416;10.066;2023-03-12T09:43:12;14.07;;;6.53;;
31368;SDS011;18004;48.416;10.066;2023-03-12T09:45:48;15.93;;;7.45;;
31368;SDS011;18004;48.416;10.066;2023-03-12T09:48:19;11.82;;;6.80;;
31368;SDS011;18004;48.416;10.066;2023-03-12T09:51:04;12.90;;;6.43;;
31368;SDS011;18004;48.416;10.066;2023-03-12T09:53:48;14.88;;;8.32;;
31368;SDS011;18004;48.416;10.066;2023-03-12T09:56:17;9.93;;;7.07;;
31368;SDS011;18004;48.416;10.066;2023-03-12T09:58:46;9.82;;;7.45;;
31368;SDS011;18004;48.416;10.066;2023-03-12T10:01:27;12.20;;;7.47;;
31368;SDS011;18004;48.416;10.066;2023-03-12T10:04:15;19.42;;;9.32;;
31368;SDS011;18004;48.416;10.066;2023-03-12T10:07:06;13.43;;;7.88;;
31368;SDS011;18004;48.416;10.066;2023-03-12T10:15:41;20.05;;;9.38;;
31368;SDS011;18004;48.416;10.066;2023-03-12T10:26:37;15.93;;;9.20;;
31368;SDS011;18004;48.416;10.066;2023-03-12T10:29:12;18.08;;;9.05;;
31368;SDS011;18004;48.416;10.066;2023-03-12T10:32:06;18.45;;;9.77;;
31368;SDS011;18004;48.416;10.066;2023-03-12T10:39:46;12.25;;;7.65;;
31368;SDS011;18004;48.416;10.066;2023-03-12T10:42:18;17.13;;;8.27;;
31368;SDS011;18004;48.416;10.066;2023-03-12T10:44:46;12.35;;;7.80;;
31368;SDS011;18004;48.416;10.066;2023-03-12T10:47:32;12.68;;;7.68;;
31368;SDS011;18004;48.416;10.066;2023-03-12T10:50:20;13.82;;;8.70;;
31368;SDS011;18004;48.416;10.066;2023-03-12T10:52:48;12.98;;;7.93;;
31368;SDS011;18004;48.416;10.066;2023-03-12T11:00:27;10.60;;;6.90;;
31368;SDS011;18004;48.416;10.066;2023-03-12T11:07:58;10.73;;;6.47;;
31368;SDS011;18004;48.416;10.066;2023-03-12T11:15:56;6.45;;;3.97;;
31368;SDS011;18004;48.416;10.066;2023-03-12T11:18:34;4.75;;;3.08;;
31368;SDS011;18004;48.416;10.066;2023-03-12T11:23:33;6.05;;;3.67;;
31368;SDS011;18004;48.416;10.066;2023-03-12T11:26:00;8.75;;;4.45;;
31368;SDS011;18004;48.416;10.066;2023-03-12T11:28:39;8.18;;;4.65;;
31368;SDS011;18004;48.416;10.066;2023-03-12T11:31:08;4.45;;;3.28;;
31368;SDS011;18004;48.416;10.066;2023-03-12T11:33:40;5.65;;;2.78;;
31368;SDS011;18004;48.416;10.066;2023-03-12T11:36:15;3.63;;;2.45;;
31368;SDS011;18004;48.416;10.066;2023-03-12T11:39:17;4.82;;;2.45;;
31368;SDS011;18004;48.416;10.066;2023-03-12T12:36:40;0.82;;;0.70;;
31368;SDS011;18004;48.416;10.066;2023-03-12T12:39:14;2.15;;;1.20;;
31368;SDS011;18004;48.416;10.066;2023-03-12T12:41:43;3.38;;;2.00;;
31368;SDS011;18004;48.416;10.066;2023-03-12T12:44:14;3.38;;;1.13;;
31368;SDS011;18004;48.416;10.066;2023-03-12T12:46:46;1.97;;;0.80;;
31368;SDS011;18004;48.416;10.066;2023-03-12T12:51:58;1.90;;;0.70;;
31368;SDS011;18004;48.416;10.066;2023-03-12T12:57:24;3.70;;;1.38;;
31368;SDS011;18004;48.416;10.066;2023-03-12T13:02:39;2.70;;;0.85;;
31368;SDS011;18004;48.416;10.066;2023-03-12T13:05:24;1.20;;;0.63;;
31368;SDS011;18004;48.416;10.066;2023-03-12T13:12:57;3.53;;;1.02;;
31368;SDS011;18004;48.416;10.066;2023-03-12T13:20:31;1.95;;;0.98;;
31368;SDS011;18004;48.416;10.066;2023-03-12T13:26:20;2.47;;;1.03;;
31368;SDS011;18004;48.416;10.066;2023-03-12T13:33:53;3.70;;;1.50;;
31368;SDS011;18004;48.416;10.066;2023-03-12T13:36:35;2.10;;;1.15;;
31368;SDS011;18004;48.416;10.066;2023-03-12T13:46:59;9.38;;;1.92;;
31368;SDS011;18004;48.416;10.066;2023-03-12T13:54:42;2.63;;;1.63;;
31368;SDS011;18004;48.416;10.066;2023-03-12T14:00:05;6.50;;;1.13;;
31368;SDS011;18004;48.416;10.066;2023-03-12T14:02:44;1.38;;;1.27;;
31368;SDS011;18004;48.416;10.066;2023-03-12T14:05:33;2.88;;;1.30;;
31368;SDS011;18004;48.416;10.066;2023-03-12T14:11:02;1.30;;;1.10;;
31368;SDS011;18004;48.416;10.066;2023-03-12T14:16:47;1.48;;;1.00;;
31368;SDS011;18004;48.416;10.066;2023-03-12T14:19:15;4.30;;;0.90;;
31368;SDS011;18004;48.416;10.066;2023-03-12T14:21:46;1.83;;;0.88;;
31368;SDS011;18004;48.416;10.066;2023-03-12T14:24:27;1.95;;;1.13;;
31368;SDS011;18004;48.416;10.066;2023-03-12T14:27:01;2.17;;;1.02;;
31368;SDS011;18004;48.416;10.066;2023-03-12T14:29:40;1.85;;;0.90;;
31368;SDS011;18004;48.416;10.066;2023-03-12T14:32:18;5.47;;;1.20;;
31368;SDS011;18004;48.416;10.066;2023-03-12T14:34:56;1.50;;;1.35;;
31368;SDS011;18004;48.416;10.066;2023-03-12T14:38:01;1.77;;;0.85;;
31368;SDS011;18004;48.416;10.066;2023-03-12T14:40:40;0.85;;;0.63;;
31368;SDS011;18004;48.416;10.066;2023-03-12T14:43:29;0.90;;;0.70;;
31368;SDS011;18004;48.416;10.066;2023-03-12T14:46:00;1.90;;;0.70;;
31368;SDS011;18004;48.416;10.066;2023-03-12T14:48:31;2.67;;;1.00;;
31368;SDS011;18004;48.416;10.066;2023-03-12T14:50:58;2.03;;;0.70;;
31368;SDS011;18004;48.416;10.066;2023-03-12T14:53:27;1.73;;;1.00;;
31368;SDS011;18004;48.416;10.066;2023-03-12T14:56:11;2.15;;;1.10;;
31368;SDS011;18004;48.416;10.066;2023-03-12T14:58:43;1.52;;;1.08;;
31368;SDS011;18004;48.416;10.066;2023-03-12T15:01:12;5.28;;;0.80;;
31368;SDS011;18004;48.416;10.066;2023-03-12T15:04:01;1.15;;;0.70;;
31368;SDS011;18004;48.416;10.066;2023-03-12T15:06:31;0.80;;;0.50;;
31368;SDS011;18004;48.416;10.066;2023-03-12T15:09:03;0.93;;;0.80;;
31368;SDS011;18004;48.416;10.066;2023-03-12T15:11:34;2.63;;;0.50;;
31368;SDS011;18004;48.416;10.066;2023-03-12T15:14:06;0.85;;;0.60;;
31368;SDS011;18004;48.416;10.066;2023-03-12T15:16:36;0.75;;;0.50;;
31368;SDS011;18004;48.416;10.066;2023-03-12T15:19:02;0.70;;;0.60;;
31368;SDS011;18004;48.416;10.066;2023-03-12T15:21:31;1.00;;;0.60;;
31368;SDS011;18004;48.416;10.066;2023-03-12T15:23:58;2.75;;;0.73;;
31368;SDS011;18004;48.416;10.066;2023-03-12T15:26:26;0.50;;;0.50;;
31368;SDS011;18004;48.416;10.066;2023-03-12T15:29:00;1.75;;;0.70;;
31368;SDS011;18004;48.416;10.066;2023-03-12T15:31:45;3.92;;;1.00;;
31368;SDS011;18004;48.416;10.066;2023-03-12T15:34:26;1.77;;;1.48;;
31368;SDS011;18004;48.416;10.066;2023-03-12T15:36:59;2.70;;;1.45;;
31368;SDS011;18004;48.416;10.066;2023-03-12T15:39:30;1.30;;;0.70;;
31368;SDS011;18004;48.416;10.066;2023-03-12T15:42:08;1.23;;;0.63;;
31368;SDS011;18004;48.416;10.066;2023-03-12T15:47:29;1.23;;;0.80;;
31368;SDS011;18004;48.416;10.066;2023-03-12T15:49:58;1.95;;;0.80;;
31368;SDS011;18004;48.416;10.066;2023-03-12T15:52:29;3.10;;;0.75;;
31368;SDS011;18004;48.416;10.066;2023-03-12T15:57:59;3.35;;;2.05;;
31368;SDS011;18004;48.416;10.066;2023-03-12T16:05:29;2.55;;;0.73;;
31368;SDS011;18004;48.416;10.066;2023-03-12T16:07:59;3.60;;;2.13;;
31368;SDS011;18004;48.416;10.066;2023-03-12T16:10:38;2.10;;;0.68;;
31368;SDS011;18004;48.416;10.066;2023-03-12T16:13:04;1.25;;;0.60;;
31368;SDS011;18004;48.416;10.066;2023-03-12T16:15:35;0.68;;;0.60;;
31368;SDS011;18004;48.416;10.066;2023-03-12T16:20:28;1.75;;;1.08;;
31368;SDS011;18004;48.416;10.066;2023-03-12T16:22:54;3.08;;;0.82;;
31368;SDS011;18004;48.416;10.066;2023-03-12T16:25:21;0.80;;;0.70;;
31368;SDS011;18004;48.416;10.066;2023-03-12T16:27:49;3.42;;;0.82;;
31368;SDS011;18004;48.416;10.066;2023-03-12T16:30:22;1.50;;;0.90;;
31368;SDS011;18004;48.416;10.066;2023-03-12T16:32:49;1.63;;;0.70;;
31368;SDS011;18004;48.416;10.066;2023-03-12T16:35:15;1.90;;;1.00;;
31368;SDS011;18004;48.416;10.066;2023-03-12T16:37:42;6.20;;;1.80;;
31368;SDS011;18004;48.416;10.066;2023-03-12T16:40:09;1.42;;;1.08;;
31368;SDS011;18004;48.416;10.066;2023-03-12T16:42:37;2.95;;;0.90;;
31368;SDS011;18004;48.416;10.066;2023-03-12T16:45:07;2.83;;;0.80;;
31368;SDS011;18004;48.416;10.066;2023-03-12T16:47:35;0.38;;;0.38;;
31368;SDS011;18004;48.416;10.066;2023-03-12T16:50:01;3.88;;;0.70;;
31368;SDS011;18004;48.416;10.066;2023-03-12T16:52:27;6.13;;;0.80;;
31368;SDS011;18004;48.416;10.066;2023-03-12T16:54:52;1.58;;;0.40;;
31368;SDS011;18004;48.416;10.066;2023-03-12T16:57:31;1.42;;;0.40;;
31368;SDS011;18004;48.416;10.066;2023-03-12T16:59:59;0.73;;;0.40;;
31368;SDS011;18004;48.416;10.066;2023-03-12T17:02:26;2.72;;;0.98;;
31368;SDS011;18004;48.416;10.066;2023-03-12T17:04:54;2.35;;;0.47;;
31368;SDS011;18004;48.416;10.066;2023-03-12T17:07:19;2.70;;;0.80;;
31368;SDS011;18004;48.416;10.066;2023-03-12T17:09:45;4.40;;;0.85;;
31368;SDS011;18004;48.416;10.066;2023-03-12T17:12:21;2.05;;;1.13;;
31368;SDS011;18004;48.416;10.066;2023-03-12T17:14:55;1.38;;;0.80;;
31368;SDS011;18004;48.416;10.066;2023-03-12T17:17:23;2.17;;;1.00;;
31368;SDS011;18004;48.416;10.066;2023-03-12T17:19:49;2.88;;;1.00;;
31368;SDS011;18004;48.416;10.066;2023-03-12T17:22:16;4.35;;;1.80;;
31368;SDS011;18004;48.416;10.066;2023-03-12T17:24:45;2.08;;;0.93;;
31368;SDS011;18004;48.416;10.066;2023-03-12T17:27:12;2.00;;;1.13;;
31368;SDS011;18004;48.416;10.066;2023-03-12T17:29:38;6.28;;;2.38;;
31368;SDS011;18004;48.416;10.066;2023-03-12T17:32:04;5.65;;;3.28;;
31368;SDS011;18004;48.416;10.066;2023-03-12T17:34:30;4.65;;;2.75;;